Terminal Aerodrome Forecast
Issued by NWS

Home | Current Version | Previous Version | Text Only | Print | Product List | Glossary On
Versions: 1 2 3 4 5 6 7 8 9 10 11 12 13 14 15 16 17 18 19 20 21 22 23 24 25 26 27
000
FTPA31 PHFO 011700
TAFJHM
TAF
PHJH 011737Z 0118/0218 01010KT P6SM -SHRA FEW020 SCT045 BKN060
     FM012300 03011KT P6SM FEW030 SCT050
     FM020600 VRB05KT P6SM FEW050
      AMD NOT SKED AFT 020400=

USA.gov is the U.S. government's official web portal to all federal, state and local government web resources and services.